Time;durP1;ratioP1;P1;durP2;ratioP2;P2;SDS_P1;SDS_P2;PMS_P1;PMS_P2;Temp;Humidity;BMP_temperature;BMP_pressure;BME280_temperature;BME280_humidity;BME280_pressure;Samples;Min_cycle;Max_cycle;Signal;HPM_P1;HPM_P2
2023/04/11 05:00:36;;;;;;;;;0.00;0.00;;;;;12.77;65.91;-18222.38;5837587;23;46603;-83
2023/04/11 05:03:04;;;;;;;;;0.00;0.00;;;;;12.61;65.96;-17886.47;4936636;28;45853;-92
2023/04/11 05:05:30;;;;;;;;;1.00;0.00;;;;;12.94;66.22;-18226.34;4939480;28;45478;-85
2023/04/11 05:07:55;;;;;;;;;0.67;0.00;;;;;12.92;66.22;-17893.72;4938588;28;45977;-83
2023/04/11 05:10:21;;;;;;;;;0.00;0.00;;;;;12.94;66.02;-17894.22;4938096;28;45661;-84
2023/04/11 05:12:46;;;;;;;;;0.00;0.00;;;;;12.75;66.16;-17889.63;4939902;28;45329;-82
2023/04/11 05:15:13;;;;;;;;;0.00;0.00;;;;;12.94;65.77;-17894.09;4939496;28;45494;-82
2023/04/11 05:17:39;;;;;;;;;0.00;0.00;;;;;12.67;65.86;-17887.94;4939826;28;45508;-82
2023/04/11 05:20:07;;;;;;;;;0.33;0.00;;;;;12.91;66.03;-17893.50;4938040;28;46080;-83
2023/04/11 05:22:33;;;;;;;;;0.33;0.00;;;;;12.91;65.95;-17893.50;4934773;28;45522;-83
2023/04/11 05:24:58;;;;;;;;;0.00;0.00;;;;;12.92;65.86;-17893.63;4938298;28;45672;-83
2023/04/11 05:27:24;;;;;;;;;0.00;0.00;;;;;12.92;65.97;-17893.63;4939204;28;46235;-80
2023/04/11 05:29:50;;;;;;;;;0.00;0.00;;;;;12.66;65.97;-17887.56;4938573;28;45559;-82
2023/04/11 05:32:15;;;;;;;;;0.00;0.00;;;;;12.88;65.77;-17892.78;4940346;28;45418;-81
2023/04/11 05:34:54;;;;;;;;;0.00;0.00;;;;;12.83;65.63;-17891.56;4921606;28;45472;-82
2023/04/11 05:37:20;;;;;;;;;0.33;0.33;;;;;12.81;66.03;-17891.06;4931179;28;47034;-86
2023/04/11 05:39:45;;;;;;;;;0.00;0.00;;;;;12.94;66.02;-17894.09;4938889;28;45481;-82
2023/04/11 05:42:11;;;;;;;;;2.00;0.00;;;;;12.94;66.14;-18226.47;4934635;28;45450;-80
2023/04/11 05:44:36;;;;;;;;;0.00;0.00;;;;;12.94;66.15;-17894.22;4938574;28;45545;-79
2023/04/11 05:47:01;;;;;;;;;0.00;0.00;;;;;12.95;66.00;-18226.59;4936294;28;46047;-80
2023/04/11 05:49:27;;;;;;;;;0.33;0.00;;;;;12.89;66.04;-18225.34;4938155;28;45661;-79
2023/04/11 05:51:52;;;;;;;;;0.00;0.00;;;;;12.72;65.85;-18221.16;4938775;28;46150;-80
2023/04/11 05:54:31;;;;;;;;;0.33;0.00;;;;;12.80;66.12;-17890.94;4937293;28;45554;-80
2023/04/11 05:56:56;;;;;;;;;0.33;0.33;;;;;12.93;65.87;-17893.97;4932960;28;46161;-79
2023/04/11 05:59:22;;;;;;;;;0.00;0.00;;;;;12.92;66.08;-17893.72;4936598;28;45416;-80
2023/04/11 06:01:49;;;;;;;;;0.33;0.00;;;;;12.92;66.22;-18225.84;4936579;28;45554;-79
2023/04/11 06:04:15;;;;;;;;;0.33;0.00;;;;;12.67;65.96;-18219.91;4939352;28;45528;-80
2023/04/11 06:06:42;;;;;;;;;0.00;0.00;;;;;12.89;66.06;-18225.34;4937820;28;46224;-79
2023/04/11 06:09:09;;;;;;;;;0.00;0.00;;;;;12.32;65.72;-18211.50;4937100;28;45567;-81
2023/04/11 06:11:34;;;;;;;;;0.00;0.00;;;;;12.19;65.93;-17876.44;4937067;28;45348;-83
2023/04/11 06:13:59;;;;;;;;;0.00;0.00;;;;;12.85;66.16;-17892.16;4938656;28;45816;-82
2023/04/11 06:16:25;;;;;;;;;0.67;0.67;;;;;12.86;65.74;-17892.28;4938367;28;45996;-83
2023/04/11 06:18:50;;;;;;;;;0.33;0.00;;;;;12.95;66.14;-17894.34;4935807;28;45530;-81
2023/04/11 06:21:16;;;;;;;;;0.00;0.00;;;;;12.81;66.02;-18223.25;4937300;28;45567;-82
2023/04/11 06:23:41;;;;;;;;;0.67;0.00;;;;;12.99;66.00;-18227.56;4937513;28;46025;-84
2023/04/11 06:26:06;;;;;;;;;0.00;0.00;;;;;13.00;65.97;-18227.81;4938434;28;47100;-87
2023/04/11 06:28:34;;;;;;;;;0.33;0.00;;;;;13.01;65.80;-17895.91;4937799;28;45550;-86
2023/04/11 06:30:59;;;;;;;;;1.33;0.33;;;;;12.16;65.94;-17875.81;4935554;28;51696;-84
2023/04/11 06:33:25;;;;;;;;;0.00;0.00;;;;;12.26;65.86;-17878.13;4938190;28;45386;-83
2023/04/11 06:35:50;;;;;;;;;0.00;0.00;;;;;12.27;65.74;-17878.25;4936135;28;45998;-85
2023/04/11 06:38:16;;;;;;;;;0.00;0.00;;;;;13.05;66.08;-17896.75;4944413;28;45955;-85
2023/04/11 06:40:41;;;;;;;;;0.00;0.00;;;;;12.22;65.52;-17877.28;4935920;28;45596;-84
2023/04/11 06:43:06;;;;;;;;;0.00;0.00;;;;;12.83;65.68;-17891.69;4938220;28;45429;-90
2023/04/11 06:45:32;;;;;;;;;0.00;0.00;;;;;12.86;66.10;-18224.50;4937725;28;45406;-83
2023/04/11 06:47:57;;;;;;;;;0.00;0.00;;;;;13.16;66.09;-18231.66;4936246;28;45589;-85
2023/04/11 06:50:22;;;;;;;;;0.00;0.00;;;;;13.20;65.61;-18232.66;4937792;28;45777;-90
2023/04/11 06:52:47;;;;;;;;;0.00;0.00;;;;;13.22;65.17;-17900.88;4941525;28;45674;-93
2023/04/11 06:55:14;;;;;;;;;1.33;0.00;;;;;13.20;65.46;-17900.38;4940283;28;47121;-92
2023/04/11 06:57:40;;;;;;;;;0.00;0.00;;;;;13.23;65.43;-18233.38;4938418;28;45438;-96
2023/04/11 07:00:06;;;;;;;;;29.67;24.33;;;;;13.10;65.57;-18230.28;4939627;28;45372;-92
2023/04/11 07:02:34;;;;;;;;;39.00;32.33;;;;;13.32;65.41;-18235.63;4940022;28;45432;-89
2023/04/11 07:05:00;;;;;;;;;0.00;0.00;;;;;13.29;65.54;-18234.88;4937822;28;46301;-89
2023/04/11 07:07:26;;;;;;;;;0.00;0.00;;;;;13.17;65.48;-18232.03;4939312;28;45451;-90
2023/04/11 07:09:51;;;;;;;;;0.67;0.00;;;;;13.13;65.14;-18230.91;4939355;28;45369;-93
2023/04/11 07:12:17;;;;;;;;;0.00;0.00;;;;;13.40;65.10;-18237.47;4938006;28;45349;-92
2023/04/11 07:14:42;;;;;;;;;0.00;0.00;;;;;13.15;65.16;-18231.41;4939205;28;46124;-92
2023/04/11 07:17:07;;;;;;;;;0.00;0.00;;;;;13.34;65.29;-18236.09;4939395;28;48129;-92
2023/04/11 07:19:33;;;;;;;;;0.00;0.00;;;;;13.36;65.19;-18236.59;4939768;28;45366;-91
2023/04/11 07:21:59;;;;;;;;;1.67;0.00;;;;;13.25;65.17;-18233.88;4939709;28;45211;-93
2023/04/11 07:24:24;;;;;;;;;1.00;0.00;;;;;13.45;64.79;-18238.72;4939532;28;46362;-92
2023/04/11 07:26:52;;;;;;;;;0.33;0.33;;;;;13.42;65.08;-18238.09;4942289;28;45243;-91
2023/04/11 07:29:17;;;;;;;;;0.00;0.00;;;;;13.60;65.19;-18242.28;4943038;28;45484;-92
2023/04/11 07:31:43;;;;;;;;;2.67;0.00;;;;;13.58;64.94;-18241.78;4942737;28;45532;-92
2023/04/11 07:34:09;;;;;;;;;0.00;0.00;;;;;13.67;65.06;-18244.03;4945896;28;45522;-93
2023/04/11 07:36:35;;;;;;;;;0.67;0.00;;;;;13.67;64.85;-18244.16;4942920;28;45581;-92
2023/04/11 07:39:00;;;;;;;;;0.00;0.00;;;;;13.67;64.66;-18244.03;4940317;28;45493;-92
2023/04/11 07:41:26;;;;;;;;;0.00;0.00;;;;;13.72;64.73;-18245.38;4939601;28;45386;-91
2023/04/11 07:43:51;;;;;;;;;1.00;0.00;;;;;13.67;64.86;-18244.16;4939157;28;53352;-93
2023/04/11 07:46:16;;;;;;;;;0.00;0.00;;;;;13.78;64.47;-18246.63;4939542;28;45373;-91
2023/04/11 07:48:42;;;;;;;;;1.33;0.00;;;;;13.81;64.30;-18247.47;4941799;28;45470;-93
2023/04/11 07:51:07;;;;;;;;;0.00;0.00;;;;;13.64;64.49;-18243.28;4943196;28;45362;-93
2023/04/11 07:53:33;;;;;;;;;0.00;0.00;;;;;13.68;64.38;-17911.63;4942184;28;46066;-92
2023/04/11 07:55:58;;;;;;;;;0.00;0.00;;;;;13.72;64.53;-18245.25;4943404;28;45466;-90
2023/04/11 07:58:24;;;;;;;;;0.33;0.00;;;;;13.80;64.36;-18247.09;4944640;28;45346;-90
2023/04/11 08:00:49;;;;;;;;;0.00;0.00;;;;;13.91;64.07;-18249.81;4942158;28;45948;-91
2023/04/11 08:03:15;;;;;;;;;0.00;0.00;;;;;13.83;64.37;-17915.25;4941979;28;46226;-90
2023/04/11 08:05:41;;;;;;;;;0.00;0.00;;;;;13.80;64.05;-17914.41;4944106;28;45332;-92
2023/04/11 08:08:06;;;;;;;;;0.00;0.00;;;;;13.69;63.95;-17912.00;4945121;28;45227;-91
2023/04/11 08:10:32;;;;;;;;;0.00;0.00;;;;;13.77;64.07;-17913.81;4942566;28;45355;-91
2023/04/11 08:12:58;;;;;;;;;0.00;0.00;;;;;13.96;64.14;-17918.16;4943198;28;46016;-90
2023/04/11 08:15:24;;;;;;;;;0.67;0.00;;;;;14.09;63.89;-17921.28;4942298;28;51248;-91
2023/04/11 08:17:50;;;;;;;;;0.00;0.00;;;;;14.07;64.06;-17920.81;4942809;28;45317;-92
2023/04/11 08:20:16;;;;;;;;;2.00;0.33;;;;;13.95;63.91;-17918.03;4944667;28;45477;-92
2023/04/11 08:22:43;;;;;;;;;0.00;0.00;;;;;14.10;63.65;-17921.66;4948151;28;45319;-91
2023/04/11 08:25:10;;;;;;;;;1.00;0.00;;;;;14.15;63.55;-17922.75;4945328;28;45250;-90
2023/04/11 08:27:36;;;;;;;;;0.00;0.00;;;;;14.12;63.47;-17922.00;4945010;28;45443;-89
2023/04/11 08:30:02;;;;;;;;;0.00;0.00;;;;;14.24;63.57;-17924.91;4945972;28;45405;-92
2023/04/11 08:32:28;;;;;;;;;0.00;0.00;;;;;14.31;63.47;-17926.59;4941580;28;48090;-90
2023/04/11 08:34:53;;;;;;;;;0.33;0.00;;;;;14.02;63.43;-17919.59;4940908;28;51919;-90
2023/04/11 08:37:18;;;;;;;;;0.00;0.00;;;;;14.37;63.13;-17594.88;4941666;28;45619;-92
2023/04/11 08:39:44;;;;;;;;;0.33;0.00;;;;;14.38;63.05;-17928.16;4941125;28;45428;-91
2023/04/11 08:42:29;;;;;;;;;2.33;0.00;;;;;14.43;63.31;-17929.38;4941283;28;47068;-90
2023/04/11 08:44:57;;;;;;;;;0.00;0.00;;;;;14.52;63.01;-17931.44;4941229;28;45437;-91
2023/04/11 08:47:23;;;;;;;;;0.00;0.00;;;;;14.31;62.85;-17593.47;4941267;28;45369;-93
2023/04/11 08:49:49;;;;;;;;;1.00;0.00;;;;;14.52;62.72;-17598.44;4941242;28;45470;-91
2023/04/11 08:52:15;;;;;;;;;0.00;0.00;;;;;14.56;63.23;-17932.41;4940989;28;46371;-91
2023/04/11 08:54:40;;;;;;;;;1.00;0.00;;;;;14.50;62.98;-17930.94;4940339;28;45297;-91
2023/04/11 08:57:06;;;;;;;;;0.00;0.00;;;;;14.57;62.74;-17932.75;4941164;28;45439;-91
2023/04/11 08:59:34;;;;;;;;;0.00;0.00;;;;;14.73;63.03;-17936.38;4941857;28;45491;-92
2023/04/11 09:02:08;;;;;;;;;0.00;0.00;;;;;14.70;62.64;-17935.78;4940616;28;46420;-90
2023/04/11 09:04:40;;;;;;;;;0.00;0.00;;;;;14.84;62.65;-17939.03;4941243;28;45515;-90
2023/04/11 09:07:06;;;;;;;;;1.00;0.00;;;;;14.60;62.55;-17933.38;4941110;28;45395;-91
2023/04/11 09:09:33;;;;;;;;;0.00;0.00;;;;;14.96;62.21;-17941.81;4942636;28;45319;-90
2023/04/11 09:11:59;;;;;;;;;2.00;0.00;;;;;14.92;62.20;-17607.50;4946151;28;46006;-90
2023/04/11 09:14:25;;;;;;;;;0.00;0.00;;;;;15.02;62.11;-17609.75;4925841;28;45490;-89
2023/04/11 09:17:12;;;;;;;;;0.00;0.00;;;;;15.07;62.22;-17611.06;4942800;28;45419;-91
2023/04/11 09:19:38;;;;;;;;;0.00;0.00;;;;;15.10;61.70;-17611.75;4943656;28;45295;-92
2023/04/11 09:22:04;;;;;;;;;0.00;0.00;;;;;15.18;61.56;-17280.03;4940024;28;47003;-92
2023/04/11 09:24:30;;;;;;;;;1.33;0.00;;;;;15.16;61.43;-17279.56;4940956;28;45393;-90
2023/04/11 09:27:18;;;;;;;;;0.33;0.00;;;;;15.25;61.25;-17281.53;4941783;28;45149;-93
2023/04/11 09:29:44;;;;;;;;;0.00;0.00;;;;;15.24;61.14;-17281.41;4942067;28;45521;-91
2023/04/11 09:32:27;;;;;;;;;0.00;0.00;;;;;15.29;61.42;-17282.56;4940945;28;46701;-93
2023/04/11 09:35:14;;;;;;;;;0.00;0.00;;;;;15.33;60.78;-16949.75;4941897;28;45534;-93
2023/04/11 09:37:47;;;;;;;;;0.00;0.00;;;;;15.34;60.39;-16616.34;4938019;28;45333;-92
2023/04/11 09:40:15;;;;;;;;;0.67;0.67;;;;;15.36;59.07;-15615.66;4942956;28;45376;-93
2023/04/11 09:42:43;;;;;;;;;0.00;0.00;;;;;15.19;59.72;-15945.97;4942233;28;46653;-94
2023/04/11 09:45:20;;;;;;;;;0.00;0.00;;;;;15.36;59.96;-15949.41;4939997;28;45338;-90
2023/04/11 09:47:47;;;;;;;;;0.00;0.00;;;;;15.41;60.15;-15950.44;4945098;28;45441;-93
2023/04/11 09:50:13;;;;;;;;;0.00;0.00;;;;;15.38;59.39;-15616.19;4945118;28;45510;-91
2023/04/11 09:52:42;;;;;;;;;0.00;0.00;;;;;15.45;58.99;-15283.59;4944848;28;46143;-94
2023/04/11 09:55:13;;;;;;;;;0.00;0.00;;;;;15.47;58.75;-14950.13;4942575;28;45472;-94
2023/04/11 09:57:46;;;;;;;;;0.00;0.00;;;;;15.37;58.87;-14948.41;4941911;28;44843;-89
2023/04/11 10:00:18;;;;;;;;;0.00;0.00;;;;;15.52;58.98;-14951.19;4944031;28;45352;-93
2023/04/11 10:02:45;;;;;;;;;3.67;2.00;;;;;15.63;59.06;-15287.22;4947485;28;47055;-92
2023/04/11 10:05:12;;;;;;;;;2.00;0.00;;;;;15.65;57.93;-14619.59;4944523;28;45223;-91
2023/04/11 10:07:54;;;;;;;;;0.00;0.00;;;;;15.83;58.55;-14622.97;4943543;28;45476;-90
2023/04/11 10:10:22;;;;;;;;;0.00;0.00;;;;;15.90;58.30;-14958.19;4944567;28;45330;-94
2023/04/11 10:12:48;;;;;;;;;0.00;0.00;;;;;16.00;57.97;-14291.84;4939142;28;45701;-92
2023/04/11 10:15:14;;;;;;;;;1.00;0.00;;;;;16.16;58.05;-14628.84;4941706;28;45639;-87
2023/04/11 10:17:40;;;;;;;;;0.67;0.67;;;;;16.19;56.81;-13960.78;4939707;28;45559;-87
2023/04/11 10:20:30;;;;;;;;;0.00;0.00;;;;;16.69;57.47;-14973.03;4939120;28;45369;-86
2023/04/11 10:22:59;;;;;;;;;2.00;0.00;;;;;16.98;57.08;-15313.16;4939113;28;46616;-86
2023/04/11 10:25:26;;;;;;;;;0.00;0.00;;;;;17.44;54.06;-13312.06;4939269;28;45497;-85
2023/04/11 10:28:01;;;;;;;;;0.00;0.00;;;;;17.63;54.19;-12644.78;4939580;28;45341;-86
2023/04/11 10:30:38;;;;;;;;;0.00;0.00;;;;;17.65;53.32;-11303.84;4939570;28;45572;-85
2023/04/11 10:33:17;;;;;;;;;0.00;0.00;;;;;17.79;54.06;-11305.69;4939077;28;46584;-86
2023/04/11 10:36:02;;;;;;;;;0.00;0.00;;;;;17.89;54.25;-10971.50;4938935;28;45404;-87
2023/04/11 10:38:42;;;;;;;;;0.00;0.00;;;;;17.99;53.95;-10637.13;4939158;28;45300;-86
2023/04/11 10:41:24;;;;;;;;;0.00;0.00;;;;;18.10;54.27;-10638.38;4939160;28;45490;-86
2023/04/11 10:43:50;;;;;;;;;0.67;0.00;;;;;18.17;52.54;-8624.50;4938718;28;46067;-86
2023/04/11 10:46:20;;;;;;;;;1.00;0.00;;;;;18.24;53.44;-8961.06;4939037;28;45501;-86
2023/04/11 10:48:57;;;;;;;;;0.00;0.00;;;;;18.28;52.00;-7281.56;4938836;28;45413;-86
2023/04/11 10:51:24;;;;;;;;;0.00;0.00;;;;;18.24;51.89;-6609.19;4939277;28;45513;-85
2023/04/11 10:53:51;;;;;;;;;0.33;0.00;;;;;18.41;51.72;-5937.69;4938760;28;46913;-86
2023/04/11 10:56:39;;;;;;;;;0.00;0.00;;;;;18.42;51.01;-5265.22;4939056;28;45398;-85
2023/04/11 10:59:04;;;;;;;;;1.00;0.00;;;;;18.30;51.83;-4928.59;4938945;28;45286;-86
2023/04/11 11:01:30;;;;;;;;;0.00;0.00;;;;;18.30;51.97;-4928.59;4939007;28;45337;-86
2023/04/11 11:07:18;;;;;;;;;1.00;1.00;;;;;17.98;52.34;-3919.34;5165590;23;45522;-96
2023/04/11 11:09:49;;;;;;;;;1.00;0.00;;;;;18.06;52.04;-3583.22;4962867;28;45437;-95
2023/04/11 11:12:16;;;;;;;;;0.33;0.00;;;;;17.76;52.22;-3583.06;4943751;28;45292;-95
2023/04/11 11:14:43;;;;;;;;;0.00;0.00;;;;;17.83;52.69;-3583.09;4942947;28;48391;-94
2023/04/11 11:17:13;;;;;;;;;0.00;0.00;;;;;17.67;52.04;-2574.78;4945539;28;45243;-95
2023/04/11 11:19:43;;;;;;;;;0.00;0.00;;;;;17.92;52.10;-2238.19;4962169;28;45412;-96
2023/04/11 11:22:27;;;;;;;;;0.67;0.00;;;;;17.81;52.36;-2574.63;4946691;28;45314;-94
2023/04/11 11:24:52;;;;;;;;;0.00;0.00;;;;;17.80;52.25;-2574.63;4963595;28;46243;-90
2023/04/11 11:27:23;;;;;;;;;2.00;0.00;;;;;17.89;51.37;-1901.97;4962813;28;46086;-89
2023/04/11 11:29:49;;;;;;;;;0.00;0.00;;;;;18.20;51.36;-891.75;4967763;28;45344;-90
2023/04/11 11:32:23;;;;;;;;;0.00;0.00;;;;;18.11;51.62;-1228.59;4967491;28;45337;-89
2023/04/11 11:34:48;;;;;;;;;0.00;0.00;;;;;17.75;50.95;-220.78;4962705;28;45554;-89
2023/04/11 11:37:14;;;;;;;;;0.00;0.00;;;;;18.31;50.17;1802.59;4962126;28;45423;-89
2023/04/11 11:39:39;;;;;;;;;0.00;0.00;;;;;17.84;50.72;1798.75;4962041;28;45440;-89
2023/04/11 11:42:05;;;;;;;;;0.00;0.00;;;;;17.84;49.82;2808.66;4963102;28;45329;-89
2023/04/11 11:44:31;;;;;;;;;0.33;0.00;;;;;17.80;50.63;2808.25;4962585;28;45502;-89
2023/04/11 11:47:14;;;;;;;;;0.00;0.00;;;;;17.83;49.45;5503.00;4961493;28;45491;-90
2023/04/11 11:49:53;;;;;;;;;0.00;0.00;;;;;17.87;49.97;5840.47;4961405;28;45546;-89
2023/04/11 11:52:39;;;;;;;;;0.67;0.00;;;;;17.78;49.89;6513.00;4962399;28;45218;-88
2023/04/11 11:55:16;;;;;;;;;0.00;0.00;;;;;17.91;49.39;7189.34;4961106;28;45566;-89
2023/04/11 11:57:46;;;;;;;;;0.00;0.00;;;;;17.75;49.97;7186.50;4961050;28;45317;-89
2023/04/11 12:00:12;;;;;;;;;0.00;0.00;;;;;17.89;48.56;9886.63;4961203;28;45373;-89
2023/04/11 12:02:40;;;;;;;;;1.00;0.00;;;;;17.81;48.95;10222.19;4945454;28;45340;-89
2023/04/11 12:05:09;;;;;;;;;0.00;0.00;;;;;17.95;48.83;10900.03;4963262;28;46604;-90
2023/04/11 12:07:39;;;;;;;;;0.00;0.00;;;;;17.39;49.47;9876.06;4943129;28;45426;-89
2023/04/11 12:10:12;;;;;;;;;0.33;0.00;;;;;17.91;48.59;11911.63;4960885;28;45487;-89
2023/04/11 12:12:39;;;;;;;;;0.00;0.00;;;;;18.16;48.74;11917.72;4943778;28;45392;-90
2023/04/11 12:15:22;;;;;;;;;0.00;0.00;;;;;17.75;47.56;14945.72;4961473;28;46449;-89
2023/04/11 12:17:50;;;;;;;;;0.00;0.00;;;;;18.11;47.68;14956.47;4961549;28;45403;-90
2023/04/11 12:20:20;;;;;;;;;0.00;0.00;;;;;18.24;46.96;16650.38;4961070;28;45309;-89
2023/04/11 12:22:45;;;;;;;;;2.00;0.00;;;;;17.90;47.56;16639.59;4943576;28;45652;-90
2023/04/11 12:25:13;;;;;;;;;0.00;0.00;;;;;17.44;48.15;16624.75;4961237;28;45374;-89
2023/04/11 12:27:41;;;;;;;;;0.00;0.00;;;;;17.57;47.62;16966.59;4961986;28;45317;-89
2023/04/11 12:30:07;;;;;;;;;0.00;0.00;;;;;17.89;47.80;17653.00;4961137;28;45454;-89
2023/04/11 12:32:33;;;;;;;;;0.00;0.00;;;;;18.27;48.19;17665.69;4961464;28;45404;-89
2023/04/11 12:34:59;;;;;;;;;0.00;0.00;;;;;17.32;46.60;20674.25;4959500;28;46326;-89
2023/04/11 12:37:25;;;;;;;;;0.00;0.00;;;;;18.30;47.12;20035.03;4943145;28;45352;-89
2023/04/11 12:39:50;;;;;;;;;0.00;0.00;;;;;18.02;47.56;20024.72;4960884;28;45281;-89
2023/04/11 12:42:16;;;;;;;;;0.00;0.00;;;;;18.36;47.03;21391.44;4961148;28;45219;-89
2023/04/11 12:44:42;;;;;;;;;1.00;0.00;;;;;17.49;46.67;22371.56;4960570;28;45409;-90
2023/04/11 12:47:07;;;;;;;;;0.33;0.00;;;;;17.80;46.95;22722.78;4962333;28;45347;-89
2023/04/11 12:49:32;;;;;;;;;0.00;0.00;;;;;18.35;46.63;24100.84;4964391;28;45290;-89
2023/04/11 12:51:58;;;;;;;;;0.00;0.00;;;;;17.91;45.16;27129.97;4946880;28;45283;-89
2023/04/11 12:54:23;;;;;;;;;0.00;0.00;;;;;17.90;46.49;25435.41;4960926;28;45358;-89
2023/04/11 12:56:48;;;;;;;;;0.00;0.00;;;;;18.37;45.87;26813.09;4960350;28;45360;-89
2023/04/11 12:59:14;;;;;;;;;0.00;0.00;;;;;18.17;45.97;27481.44;4960358;28;45365;-89
2023/04/11 13:01:40;;;;;;;;;0.33;0.00;;;;;17.58;46.60;28129.88;4961481;28;45405;-89
2023/04/11 13:04:06;;;;;;;;;0.00;0.00;;;;;18.02;46.31;27473.88;4960372;28;46199;-89
2023/04/11 13:06:32;;;;;;;;;0.00;0.00;;;;;18.12;47.13;26462.34;4942897;28;45426;-89
2023/04/11 13:08:57;;;;;;;;;0.00;0.00;;;;;17.97;46.75;26793.84;4961080;28;45498;-89
2023/04/11 13:11:22;;;;;;;;;0.00;0.00;;;;;18.10;44.89;32319.50;4962247;28;45475;-89
2023/04/11 13:13:50;;;;;;;;;0.00;0.00;;;;;18.59;44.83;34693.75;4961803;28;45383;-89
2023/04/11 13:16:16;;;;;;;;;0.00;0.00;;;;;18.37;45.57;35226.84;4960006;28;45372;-89
2023/04/11 13:18:41;;;;;;;;;1.00;0.00;;;;;18.50;43.73;38446.47;4960172;28;45358;-89
2023/04/11 13:21:07;;;;;;;;;0.00;0.00;;;;;18.35;45.07;37801.63;4942958;28;45334;-89
2023/04/11 13:23:33;;;;;;;;;0.00;0.00;;;;;17.86;44.59;39941.34;4960485;28;46249;-89
2023/04/11 13:25:59;;;;;;;;;0.00;0.00;;;;;18.60;45.01;40005.78;4946945;28;46032;-94
2023/04/11 13:28:25;;;;;;;;;0.00;0.00;;;;;18.64;43.79;42708.06;4946372;28;45401;-95
2023/04/11 13:30:51;;;;;;;;;0.00;0.00;;;;;18.58;44.67;41884.16;4945660;28;45536;-95
2023/04/11 13:33:17;;;;;;;;;0.67;0.00;;;;;18.20;45.10;42543.03;4945155;28;47107;-93
2023/04/11 13:35:42;;;;;;;;;1.33;0.00;;;;;18.34;45.19;42247.72;4947347;28;45834;-94
2023/04/11 13:38:09;;;;;;;;;1.00;0.00;;;;;18.28;45.38;42046.47;4945161;28;45404;-95
2023/04/11 13:40:37;;;;;;;;;0.00;0.00;;;;;18.40;45.73;41805.06;4944426;28;45331;-95
2023/04/11 13:43:02;;;;;;;;;0.00;0.00;;;;;18.22;46.14;41289.72;4943288;28;48517;-93
2023/04/11 13:45:28;;;;;;;;;0.33;0.00;;;;;18.09;45.89;41950.31;4943218;28;45360;-94
2023/04/11 13:47:53;;;;;;;;;1.33;0.67;;;;;18.03;46.28;41892.34;4945551;28;45304;-94
2023/04/11 13:50:18;;;;;;;;;1.00;0.00;;;;;17.57;45.09;44468.09;4965426;28;45540;-94
2023/04/11 13:52:44;;;;;;;;;0.00;0.00;;;;;18.21;45.48;43787.94;4967014;28;48585;-96
2023/04/11 13:55:09;;;;;;;;;0.00;0.00;;;;;17.72;46.07;44004.09;4959993;28;45334;-95
2023/04/11 13:57:35;;;;;;;;;0.67;0.00;;;;;17.30;44.99;45659.16;4945753;28;45581;-94
2023/04/11 14:00:00;;;;;;;;;1.00;0.00;;;;;17.21;44.74;45715.69;4944551;28;45416;-93
2023/04/11 14:02:25;;;;;;;;;0.00;0.00;;;;;17.37;44.92;46358.03;4928804;28;47764;-93
2023/04/11 14:04:52;;;;;;;;;1.00;0.00;;;;;18.11;44.62;46855.94;4928516;28;45867;-93
2023/04/11 14:07:17;;;;;;;;;0.00;0.00;;;;;17.17;44.76;47083.50;4934816;28;45218;-93
2023/04/11 14:09:43;;;;;;;;;0.00;0.00;;;;;18.05;45.49;46912.19;4931840;28;45519;-94
2023/04/11 14:12:08;;;;;;;;;0.00;0.00;;;;;18.01;44.61;47662.47;4930214;28;46982;-94
2023/04/11 14:14:33;;;;;;;;;0.00;0.00;;;;;17.25;45.40;47387.81;4928331;28;45547;-94
2023/04/11 14:16:59;;;;;;;;;0.00;0.00;;;;;17.71;45.71;47582.28;4913874;28;45345;-93
2023/04/11 14:19:25;;;;;;;;;0.00;0.00;;;;;17.95;45.29;47976.78;4903135;29;45610;-96
2023/04/11 14:21:50;;;;;;;;;0.00;0.00;;;;;17.94;45.53;47329.28;4903037;29;48498;-94
2023/04/11 14:24:18;;;;;;;;;0.00;0.00;;;;;17.35;45.68;47235.81;4902535;29;45354;-87
2023/04/11 14:26:43;;;;;;;;;0.00;0.00;;;;;17.61;45.59;47775.66;4901669;29;45339;-88
2023/04/11 14:29:09;;;;;;;;;0.00;0.00;;;;;17.89;45.45;48094.16;4901676;29;45408;-88
2023/04/11 14:31:35;;;;;;;;;0.00;0.00;;;;;17.69;45.66;48412.88;4899820;29;47621;-87
2023/04/11 14:34:01;;;;;;;;;0.00;0.00;;;;;17.65;45.79;48239.22;4902575;29;45392;-87
2023/04/11 14:36:26;;;;;;;;;0.00;0.00;;;;;17.76;45.64;48464.06;4912725;28;45584;-88
2023/04/11 14:38:51;;;;;;;;;0.00;0.00;;;;;17.74;46.41;48002.06;4916193;28;45492;-87
2023/04/11 14:41:18;;;;;;;;;2.00;0.00;;;;;17.73;46.87;46897.25;4918378;28;45488;-87
2023/04/11 14:43:43;;;;;;;;;0.00;0.00;;;;;17.22;46.66;46991.56;4914364;28;45466;-86
2023/04/11 14:46:09;;;;;;;;;0.00;0.00;;;;;17.62;46.46;47922.78;4907130;28;45515;-86
2023/04/11 14:48:34;;;;;;;;;0.00;0.00;;;;;17.37;46.32;48843.97;4916931;28;45591;-87
2023/04/11 14:51:03;;;;;;;;;0.00;0.00;;;;;17.08;46.02;48814.63;4908570;28;46094;-86
2023/04/11 14:53:28;;;;;;;;;1.00;0.00;;;;;17.48;46.78;48310.78;4911344;28;45442;-87
2023/04/11 14:55:53;;;;;;;;;0.00;0.00;;;;;17.39;47.10;47885.22;4911702;28;45422;-87
2023/04/11 14:58:19;;;;;;;;;0.00;0.00;;;;;17.42;47.27;47435.72;4914655;28;45284;-87
2023/04/11 15:00:44;;;;;;;;;0.00;0.00;;;;;17.29;47.25;47486.44;4918378;28;46096;-86
2023/04/11 15:03:11;;;;;;;;;0.00;0.00;;;;;17.31;46.67;48272.44;4920352;28;45364;-86
2023/04/11 15:05:36;;;;;;;;;0.67;0.00;;;;;17.29;46.30;48840.19;4915811;28;45409;-86
2023/04/11 15:08:02;;;;;;;;;0.00;0.00;;;;;16.96;46.60;48376.47;4920028;28;45706;-87
2023/04/11 15:10:29;;;;;;;;;0.00;0.00;;;;;17.34;47.07;48189.47;4917973;28;47120;-87
2023/04/11 15:12:54;;;;;;;;;1.00;0.00;;;;;17.33;46.71;48536.94;4916196;28;45521;-87
2023/04/11 15:15:19;;;;;;;;;0.00;0.00;;;;;16.95;47.20;48518.69;4916218;28;45568;-91
2023/04/11 15:17:47;;;;;;;;;0.00;0.00;;;;;17.08;46.55;48928.94;4916481;28;45624;-90
2023/04/11 15:20:14;;;;;;;;;0.00;0.00;;;;;17.25;46.58;49506.47;4927996;28;46187;-89
2023/04/11 15:23:18;;;;;;;;;0.00;0.00;;;;;17.20;46.28;50321.72;4909646;28;45722;-93
2023/04/11 15:25:45;;;;;;;;;0.00;0.00;;;;;17.15;46.49;49750.84;4948954;23;45415;-86
2023/04/11 15:28:10;;;;;;;;;0.00;0.00;;;;;17.14;46.16;50180.78;4949504;28;45550;-89
2023/04/11 15:30:46;;;;;;;;;0.00;0.00;;;;;17.00;46.70;50168.91;4958072;28;46819;-88
2023/04/11 15:33:12;;;;;;;;;0.00;0.00;;;;;17.07;47.09;49276.38;4959400;28;45443;-88
2023/04/11 15:35:40;;;;;;;;;0.00;0.00;;;;;16.88;47.24;48776.25;4952995;28;45461;-83
2023/04/11 15:38:05;;;;;;;;;0.00;0.00;;;;;17.02;47.86;48681.47;4954693;28;45557;-83
2023/04/11 15:40:30;;;;;;;;;0.00;0.00;;;;;16.97;47.92;48291.84;4958885;28;60541;-86
2023/04/11 15:42:56;;;;;;;;;0.00;0.00;;;;;16.93;48.02;48086.94;4954545;28;57266;-84
2023/04/11 15:45:21;;;;;;;;;0.00;0.00;;;;;17.00;48.03;48145.59;4954358;28;45404;-85
2023/04/11 15:47:46;;;;;;;;;0.67;0.00;;;;;16.83;47.79;48301.66;4950042;28;45547;-85
2023/04/11 15:50:12;;;;;;;;;0.00;0.00;;;;;16.97;47.93;48223.19;4955148;28;47726;-88
2023/04/11 15:52:37;;;;;;;;;0.00;0.00;;;;;16.82;48.12;47995.72;4956697;28;45472;-87
2023/04/11 15:55:03;;;;;;;;;0.00;0.00;;;;;16.92;48.41;47740.69;4959146;28;45491;-88
2023/04/11 15:57:28;;;;;;;;;0.00;0.00;;;;;16.90;48.38;46872.56;4957815;28;45338;-84
2023/04/11 15:59:53;;;;;;;;;0.00;0.00;;;;;16.87;48.94;45409.91;4957357;28;45554;-85
2023/04/11 16:02:18;;;;;;;;;0.00;0.00;;;;;16.70;50.89;39227.34;4958723;28;45372;-85
2023/04/11 16:04:44;;;;;;;;;0.67;0.00;;;;;16.74;51.31;35669.56;4958890;28;60562;-91
2023/04/11 16:07:09;;;;;;;;;0.00;0.00;;;;;16.60;52.82;26389.97;4956678;28;45485;-86
2023/04/11 16:09:35;;;;;;;;;1.00;0.00;;;;;16.43;54.14;21315.34;4957384;28;47469;-84
2023/04/11 16:12:00;;;;;;;;;0.00;0.00;;;;;16.45;54.22;19628.78;4958663;28;45714;-83
2023/04/11 16:14:27;;;;;;;;;0.00;0.00;;;;;16.47;53.83;19629.53;4957861;28;45494;-86
2023/04/11 16:16:53;;;;;;;;;1.00;1.00;;;;;16.40;54.67;16254.63;4952287;28;45506;-91
2023/04/11 16:19:18;;;;;;;;;0.00;0.00;;;;;16.33;54.90;14567.66;4954578;28;45365;-84
2023/04/11 16:21:44;;;;;;;;;0.00;0.00;;;;;16.10;55.43;11531.31;4961726;28;45418;-88
2023/04/11 16:24:10;;;;;;;;;1.00;0.00;;;;;16.19;55.75;10187.34;4963270;28;45369;-88
2023/04/11 16:26:35;;;;;;;;;0.00;0.00;;;;;16.05;56.19;9175.41;4965349;28;45620;-90
2023/04/11 16:29:02;;;;;;;;;0.00;0.00;;;;;16.04;56.02;9175.31;4986209;28;47146;-94
2023/04/11 16:31:27;;;;;;;;;0.00;0.00;;;;;15.97;56.51;7156.97;4979633;28;45315;-87
2023/04/11 16:33:53;;;;;;;;;0.00;0.00;;;;;15.99;56.69;6485.22;4975965;28;45696;-85